N192KQ RPNS-RPPL

Flight info

Callsign N192KQ
Flight time N/A
Altitude 7500
Route RPNS RPSM RPVO RPPL
Aircraft K100/L-V/N

Departure

Time 2026-04-18 12:00
Airport Siargao Airport (RPNS)

Arrival

Time N/A
Airport RPPL
Time Latitude Longitude Altitude Speed Heading
2026-04-18 11:53 9.85646 126.01565 22 ft 0 kts 100°
2026-04-18 11:56 9.85650 126.01568 30 ft 1 kts 337°
2026-04-18 11:56 9.85651 126.01550 30 ft 5 kts 269°
2026-04-18 11:57 9.85637 126.01504 30 ft 9 kts 235°
2026-04-18 11:57 9.85567 126.01475 29 ft 13 kts 188°
2026-04-18 11:57 9.85466 126.01455 27 ft 17 kts 189°
2026-04-18 11:57 9.85341 126.01436 25 ft 18 kts 190°
2026-04-18 11:58 9.85264 126.01420 27 ft 5 kts 195°
2026-04-18 11:58 9.85251 126.01419 27 ft 2 kts 24°
2026-04-18 11:58 9.85278 126.01422 25 ft 5 kts
2026-04-18 11:58 9.85283 126.01423 25 ft 0 kts 10°
2026-04-18 11:59 9.85539 126.01467 28 ft 71 kts
2026-04-18 11:59 9.86180 126.01575 104 ft 109 kts 13°
2026-04-18 12:00 9.86920 126.01767 452 ft 106 kts 23°
2026-04-18 12:00 9.87624 126.02024 676 ft 115 kts 12°
2026-04-18 12:00 9.88484 126.02141 800 ft 132 kts
2026-04-18 12:00 9.89423 126.02119 1057 ft 139 kts 338°
2026-04-18 12:01 9.89721 126.00316 1505 ft 165 kts 237°
2026-04-18 12:01 9.89010 125.99413 1702 ft 165 kts 233°
2026-04-18 12:01 9.88281 125.98515 1921 ft 166 kts 233°
2026-04-18 12:02 9.87542 125.97601 2127 ft 167 kts 233°
2026-04-18 12:02 9.86859 125.96658 2296 ft 165 kts 253°
2026-04-18 12:02 9.86859 125.95547 2464 ft 157 kts 289°
2026-04-18 12:02 9.87155 125.94485 2648 ft 155 kts 290°
2026-04-18 12:03 9.87446 125.93435 2832 ft 154 kts 289°
2026-04-18 12:03 9.87730 125.92400 2998 ft 154 kts 289°
2026-04-18 12:03 9.88016 125.91352 3161 ft 154 kts 289°
2026-04-18 12:03 9.88303 125.90304 3297 ft 154 kts 289°
2026-04-18 12:04 9.88591 125.89247 3435 ft 156 kts 289°
2026-04-18 12:04 9.88882 125.88186 3587 ft 156 kts 289°
2026-04-18 12:04 9.89173 125.87120 3717 ft 157 kts 288°
2026-04-18 12:04 9.89466 125.86050 3855 ft 158 kts 288°
2026-04-18 12:05 9.89757 125.84984 3994 ft 159 kts 288°
2026-04-18 12:05 9.90054 125.83899 4131 ft 160 kts 288°
2026-04-18 12:05 9.90353 125.82802 4246 ft 161 kts 288°
2026-04-18 12:05 9.90654 125.81706 4382 ft 161 kts 288°
2026-04-18 12:06 9.90953 125.80608 4509 ft 162 kts 288°
2026-04-18 12:06 9.91253 125.79502 4629 ft 162 kts 288°
2026-04-18 12:06 9.91551 125.78413 4752 ft 162 kts 287°
2026-04-18 12:06 9.91853 125.77304 4863 ft 163 kts 287°
2026-04-18 12:07 9.92157 125.76193 4981 ft 164 kts 288°
2026-04-18 12:07 9.92460 125.75078 5090 ft 164 kts 288°
2026-04-18 12:07 9.92765 125.73962 5195 ft 164 kts 288°
2026-04-18 12:07 9.93071 125.72842 5287 ft 165 kts 287°
2026-04-18 12:08 9.93378 125.71717 5382 ft 165 kts 287°
2026-04-18 12:08 9.93686 125.70589 5479 ft 166 kts 287°
2026-04-18 12:08 9.93993 125.69460 5575 ft 166 kts 287°
2026-04-18 12:08 9.94301 125.68329 5666 ft 167 kts 287°
2026-04-18 12:09 9.94612 125.67192 5757 ft 167 kts 287°
2026-04-18 12:09 9.94922 125.66054 5853 ft 168 kts 287°
2026-04-18 12:09 9.95234 125.64910 5937 ft 168 kts 286°
2026-04-18 12:09 9.95545 125.63767 6017 ft 169 kts 287°
2026-04-18 12:10 9.95858 125.62617 6097 ft 169 kts 286°
2026-04-18 12:10 9.96168 125.61478 6180 ft 169 kts 286°
2026-04-18 12:10 9.96483 125.60324 6261 ft 170 kts 286°
2026-04-18 12:10 9.96798 125.59167 6341 ft 170 kts 286°
2026-04-18 12:11 9.97114 125.58009 6424 ft 170 kts 286°
2026-04-18 12:11 9.97429 125.56850 6495 ft 170 kts 286°
2026-04-18 12:11 9.97746 125.55687 6568 ft 171 kts 286°
2026-04-18 12:11 9.97955 125.54918 6617 ft 171 kts 286°
2026-04-18 12:12 9.98272 125.53753 6698 ft 171 kts 286°
2026-04-18 12:12 9.98696 125.52197 6791 ft 171 kts 286°
2026-04-18 12:12 9.99013 125.51033 6861 ft 172 kts 285°
2026-04-18 12:12 9.99329 125.49866 6998 ft 172 kts 285°
2026-04-18 12:13 9.99645 125.48697 7215 ft 171 kts 285°
2026-04-18 12:13 9.99958 125.47546 7440 ft 172 kts 285°
2026-04-18 12:13 10.00283 125.46358 7530 ft 180 kts 286°
2026-04-18 12:13 10.00629 125.45103 7530 ft 188 kts 285°
2026-04-18 12:14 10.00981 125.43809 7531 ft 192 kts 285°
2026-04-18 12:14 10.01338 125.42494 7536 ft 194 kts 285°
2026-04-18 12:14 10.01576 125.41618 7535 ft 195 kts 285°
2026-04-18 12:14 10.02058 125.39841 7536 ft 196 kts 285°
2026-04-18 12:15 10.02420 125.38511 7537 ft 196 kts 285°
2026-04-18 12:15 10.02783 125.37177 7538 ft 196 kts 285°
2026-04-18 12:15 10.03145 125.35840 7538 ft 196 kts 285°
2026-04-18 12:15 10.03507 125.34503 7539 ft 196 kts 285°
2026-04-18 12:16 10.03870 125.33167 7536 ft 196 kts 285°
2026-04-18 12:16 10.04110 125.32282 7537 ft 196 kts 285°
2026-04-18 12:16 10.04595 125.30495 7536 ft 196 kts 285°
2026-04-18 12:16 10.04835 125.29612 7534 ft 196 kts 285°
2026-04-18 12:17 10.05198 125.28273 7539 ft 196 kts 285°
2026-04-18 12:17 10.05679 125.26503 7538 ft 196 kts 285°
2026-04-18 12:17 10.06040 125.25168 7534 ft 196 kts 285°
2026-04-18 12:17 10.06404 125.23828 7536 ft 196 kts 285°
2026-04-18 12:18 10.06644 125.22942 7539 ft 196 kts 285°
2026-04-18 12:18 10.07007 125.21604 7535 ft 196 kts 285°
2026-04-18 12:18 10.07369 125.20267 7535 ft 196 kts 285°
2026-04-18 12:18 10.07732 125.18930 7536 ft 196 kts 285°
2026-04-18 12:19 10.08094 125.17592 7536 ft 197 kts 285°
2026-04-18 12:19 10.08458 125.16251 7534 ft 197 kts 285°
2026-04-18 12:19 10.08820 125.14912 7537 ft 197 kts 285°
2026-04-18 12:19 10.09182 125.13575 7535 ft 197 kts 285°
2026-04-18 12:20 10.09544 125.12239 7536 ft 196 kts 285°
2026-04-18 12:20 10.09903 125.10915 7535 ft 196 kts 285°
2026-04-18 12:20 10.10265 125.09575 7536 ft 196 kts 285°
2026-04-18 12:20 10.10627 125.08238 7533 ft 197 kts 285°
2026-04-18 12:21 10.10989 125.06899 7535 ft 197 kts 285°
2026-04-18 12:21 10.11352 125.05558 7532 ft 197 kts 285°
2026-04-18 12:21 10.11713 125.04220 7532 ft 197 kts 285°
2026-04-18 12:21 10.12076 125.02882 7534 ft 197 kts 285°
2026-04-18 12:22 10.12437 125.01543 7533 ft 197 kts 285°
2026-04-18 12:22 10.12794 125.00219 7534 ft 197 kts 285°
2026-04-18 12:22 10.13156 124.98881 7532 ft 197 kts 285°
2026-04-18 12:22 10.13519 124.97537 7530 ft 197 kts 285°
2026-04-18 12:23 10.13882 124.96196 7531 ft 197 kts 285°
2026-04-18 12:23 10.14244 124.94855 7529 ft 197 kts 285°
2026-04-18 12:23 10.14606 124.93515 7531 ft 197 kts 285°
2026-04-18 12:23 10.14968 124.92174 7531 ft 197 kts 285°
2026-04-18 12:24 10.15330 124.90832 7528 ft 197 kts 285°
2026-04-18 12:24 10.15692 124.89492 7530 ft 197 kts 285°
2026-04-18 12:24 10.16055 124.88146 7528 ft 197 kts 285°
2026-04-18 12:24 10.16412 124.86822 7526 ft 197 kts 285°
2026-04-18 12:25 10.16778 124.85464 7527 ft 197 kts 285°
2026-04-18 12:25 10.17136 124.84140 7526 ft 197 kts 285°
2026-04-18 12:25 10.17498 124.82797 7526 ft 197 kts 285°
2026-04-18 12:25 10.17860 124.81456 7525 ft 197 kts 285°
2026-04-18 12:26 10.18226 124.80115 7527 ft 197 kts 288°
2026-04-18 12:26 10.18902 124.78925 7528 ft 196 kts 312°
2026-04-18 12:26 10.19969 124.78077 7534 ft 196 kts 333°
2026-04-18 12:26 10.21265 124.77659 7532 ft 196 kts 347°
2026-04-18 12:27 10.22576 124.77338 7528 ft 196 kts 346°
2026-04-18 12:27 10.23898 124.76999 7529 ft 196 kts 346°
2026-04-18 12:27 10.25224 124.76668 7528 ft 196 kts 346°
2026-04-18 12:27 10.26553 124.76337 7529 ft 196 kts 346°
2026-04-18 12:28 10.27879 124.76007 7529 ft 196 kts 346°
2026-04-18 12:28 10.29206 124.75676 7529 ft 196 kts 346°
2026-04-18 12:28 10.30532 124.75346 7530 ft 196 kts 346°
2026-04-18 12:28 10.31857 124.75015 7529 ft 196 kts 346°
2026-04-18 12:29 10.33182 124.74684 7528 ft 196 kts 346°
2026-04-18 12:29 10.34505 124.74355 7528 ft 196 kts 346°
2026-04-18 12:29 10.35829 124.74024 7528 ft 196 kts 346°
2026-04-18 12:29 10.37153 124.73694 7527 ft 196 kts 346°
2026-04-18 12:30 10.38458 124.73368 7527 ft 196 kts 346°
2026-04-18 12:30 10.39781 124.73037 7527 ft 196 kts 346°
2026-04-18 12:30 10.41104 124.72708 7527 ft 196 kts 346°
2026-04-18 12:30 10.42426 124.72377 7525 ft 196 kts 346°
2026-04-18 12:31 10.43749 124.72047 7528 ft 196 kts 346°
2026-04-18 12:31 10.45073 124.71716 7526 ft 196 kts 346°
2026-04-18 12:31 10.46397 124.71386 7523 ft 196 kts 346°
2026-04-18 12:31 10.47718 124.71055 7523 ft 196 kts 346°
2026-04-18 12:32 10.49038 124.70724 7524 ft 195 kts 346°
2026-04-18 12:32 10.50363 124.70394 7526 ft 195 kts 346°
2026-04-18 12:32 10.51685 124.70064 7524 ft 195 kts 346°
2026-04-18 12:32 10.53000 124.69735 7522 ft 195 kts 346°
2026-04-18 12:33 10.54319 124.69405 7525 ft 195 kts 346°
2026-04-18 12:33 10.55638 124.69076 7525 ft 195 kts 346°
2026-04-18 12:33 10.56956 124.68745 7525 ft 195 kts 346°
2026-04-18 12:33 10.58259 124.68419 7523 ft 195 kts 347°
2026-04-18 12:34 10.59579 124.68090 7523 ft 195 kts 346°
2026-04-18 12:34 10.60896 124.67760 7526 ft 195 kts 346°
2026-04-18 12:34 10.62211 124.67431 7525 ft 195 kts 347°
2026-04-18 12:34 10.63525 124.67103 7525 ft 194 kts 346°
2026-04-18 12:35 10.64840 124.66774 7523 ft 194 kts 346°
2026-04-18 12:35 10.66153 124.66446 7521 ft 194 kts 347°
2026-04-18 12:35 10.67467 124.66117 7523 ft 194 kts 347°
2026-04-18 12:35 10.68780 124.65788 7522 ft 194 kts 346°
2026-04-18 12:36 10.70089 124.65460 7523 ft 194 kts 347°
2026-04-18 12:36 10.71402 124.65132 7522 ft 194 kts 347°
2026-04-18 12:36 10.72697 124.64808 7524 ft 194 kts 346°
2026-04-18 12:36 10.74009 124.64479 7523 ft 194 kts 347°
2026-04-18 12:37 10.75320 124.64152 7523 ft 194 kts 346°
2026-04-18 12:37 10.76630 124.63823 7523 ft 194 kts 347°
2026-04-18 12:37 10.77945 124.63494 7524 ft 194 kts 346°
2026-04-18 12:37 10.79260 124.63165 7525 ft 194 kts 347°
2026-04-18 12:38 10.80575 124.62836 7527 ft 194 kts 346°
2026-04-18 12:38 10.81890 124.62507 7527 ft 194 kts 346°
2026-04-18 12:38 10.83204 124.62177 7525 ft 194 kts 347°
2026-04-18 12:38 10.84519 124.61848 7526 ft 194 kts 346°
2026-04-18 12:39 10.85814 124.61524 7527 ft 194 kts 346°
2026-04-18 12:39 10.87135 124.61193 7526 ft 195 kts 346°
2026-04-18 12:39 10.88449 124.60864 7526 ft 194 kts 346°
2026-04-18 12:39 10.89765 124.60535 7527 ft 195 kts 346°
2026-04-18 12:40 10.91078 124.60205 7526 ft 194 kts 346°
2026-04-18 12:40 10.92393 124.59876 7528 ft 194 kts 346°
2026-04-18 12:40 10.93704 124.59547 7526 ft 194 kts 346°
2026-04-18 12:40 10.95018 124.59218 7527 ft 194 kts 346°
2026-04-18 12:41 10.96332 124.58889 7527 ft 194 kts 346°
2026-04-18 12:41 10.97645 124.58561 7525 ft 194 kts 346°
2026-04-18 12:41 10.98956 124.58231 7524 ft 194 kts 346°
2026-04-18 12:41 11.00269 124.57902 7526 ft 194 kts 346°
2026-04-18 12:42 11.01564 124.57577 7518 ft 194 kts 346°
2026-04-18 12:42 11.02898 124.57245 7351 ft 196 kts 346°
2026-04-18 12:42 11.04092 124.56717 7177 ft 183 kts 325°
2026-04-18 12:42 11.04996 124.55851 6996 ft 177 kts 308°
2026-04-18 12:43 11.05591 124.54739 6686 ft 184 kts 289°
2026-04-18 12:43 11.05809 124.53445 6313 ft 188 kts 273°
2026-04-18 12:43 11.05860 124.52114 5920 ft 189 kts 274°
2026-04-18 12:43 11.05936 124.50773 5532 ft 190 kts 275°
2026-04-18 12:44 11.06007 124.49416 4989 ft 196 kts 274°
2026-04-18 12:44 11.06079 124.48025 4362 ft 190 kts 275°
2026-04-18 12:44 11.06139 124.46731 3737 ft 185 kts 275°
2026-04-18 12:44 11.06200 124.45405 3105 ft 189 kts 275°
2026-04-18 12:45 11.06267 124.44092 2486 ft 179 kts 275°
2026-04-18 12:45 11.06332 124.42861 1999 ft 165 kts 275°
2026-04-18 12:45 11.06381 124.41764 1870 ft 150 kts 276°
2026-04-18 12:45 11.06533 124.40745 1625 ft 140 kts 292°
2026-04-18 12:46 11.06876 124.39828 1396 ft 138 kts 294°
2026-04-18 12:46 11.07225 124.38914 1203 ft 137 kts 293°
2026-04-18 12:46 11.07551 124.38066 1207 ft 120 kts 294°
2026-04-18 12:46 11.07549 124.37247 1196 ft 121 kts 241°
2026-04-18 12:47 11.06983 124.36612 1199 ft 121 kts 228°
2026-04-18 12:47 11.06411 124.35977 1194 ft 125 kts 229°
2026-04-18 12:47 11.05813 124.35327 1197 ft 124 kts 228°
2026-04-18 12:47 11.05135 124.34812 1182 ft 124 kts 191°
2026-04-18 12:48 11.04395 124.35062 1180 ft 111 kts 123°
2026-04-18 12:48 11.04221 124.35747 1201 ft 93 kts 92°
2026-04-18 12:48 11.04273 124.36374 1104 ft 90 kts 66°
2026-04-18 12:48 11.04743 124.36761 822 ft 92 kts 24°
2026-04-18 12:49 11.05264 124.37084 500 ft 80 kts 44°
2026-04-18 12:49 11.05662 124.37466 275 ft 73 kts 46°
2026-04-18 12:49 11.06032 124.37837 185 ft 79 kts 43°
2026-04-18 12:49 11.06405 124.38219 79 ft 73 kts 45°
2026-04-18 12:50 11.06733 124.38547 7 ft 53 kts 44°
2026-04-18 12:50 11.06920 124.38737 9 ft 26 kts 46°
2026-04-18 12:50 11.07018 124.38836 11 ft 13 kts 45°
2026-04-18 12:50 11.07055 124.38862 11 ft 3 kts 339°
2026-04-18 12:51 11.07060 124.38868 10 ft 2 kts 110°
2026-04-18 12:51 11.07029 124.38847 11 ft 10 kts 224°
2026-04-18 12:51 11.06951 124.38770 10 ft 19 kts 225°
2026-04-18 12:51 11.06849 124.38666 7 ft 21 kts 225°
2026-04-18 12:52 11.06743 124.38560 7 ft 22 kts 225°
2026-04-18 12:52 11.06636 124.38451 5 ft 20 kts 224°
2026-04-18 12:52 11.06574 124.38389 5 ft 7 kts 225°
2026-04-18 12:52 11.06559 124.38363 6 ft 4 kts 301°
2026-04-18 12:53 11.06580 124.38336 6 ft 5 kts 285°
2026-04-18 12:53 11.06564 124.38313 7 ft 3 kts 218°
2026-04-18 12:53 11.06559 124.38309 7 ft 0 kts 218°
2026-04-18 12:59 11.06563 124.38305 7 ft 0 kts 46°
2026-04-18 12:59 11.06556 124.38299 7 ft 0 kts 43°
2026-04-18 13:02 11.06561 124.38303 7 ft 3 kts 43°
2026-04-18 13:02 11.06580 124.38333 6 ft 7 kts 92°
2026-04-18 13:03 11.06561 124.38361 6 ft 5 kts 128°
2026-04-18 13:03 11.06559 124.38373 6 ft 0 kts 39°
2026-04-18 13:04 11.06561 124.38374 5 ft 6 kts 39°
2026-04-18 13:05 11.06746 124.38560 7 ft 66 kts 45°
2026-04-18 13:05 11.07325 124.39028 275 ft 82 kts 27°
2026-04-18 13:05 11.07607 124.39288 411 ft 85 kts 39°
2026-04-18 13:05 11.07870 124.39589 582 ft 86 kts 36°